Time;durP1;ratioP1;P1;durP2;ratioP2;P2;SDS_P1;SDS_P2;PMS_P1;PMS_P2;Temp;Humidity;BMP_temperature;BMP_pressure;BME280_temperature;BME280_humidity;BME280_pressure;Samples;Min_cycle;Max_cycle;Signal;HPM_P1;HPM_P2
2021/11/21 00:00:36;;;;;;;;;;;7.50;99.90;;;;;;5046125;28;19947;-76
2021/11/21 00:03:02;;;;;;;;;;;7.50;99.90;;;;;;5048473;28;19925;-77
2021/11/21 00:05:29;;;;;;;;;;;7.50;99.90;;;;;;5043188;28;20011;-76
2021/11/21 00:07:56;;;;;;;;;;;7.50;99.90;;;;;;5047513;28;19933;-76
2021/11/21 00:10:22;;;;;;;;;;;7.50;99.90;;;;;;5050803;28;19932;-76
2021/11/21 00:12:49;;;;;;;;;;;7.50;99.90;;;;;;5041051;28;19925;-76
2021/11/21 00:15:16;;;;;;;;;;;7.50;99.90;;;;;;5044017;28;20019;-76
2021/11/21 00:17:44;;;;;;;;;;;7.50;99.90;;;;;;5044812;28;20410;-76
2021/11/21 00:20:16;;;;;;;;;;;7.50;99.90;;;;;;5047941;28;20020;-76
2021/11/21 00:22:43;;;;;;;;;;;7.50;99.90;;;;;;5047394;28;20422;-77
2021/11/21 00:25:10;;;;;;;;;;;7.50;99.90;;;;;;5051571;28;19932;-77
2021/11/21 00:27:36;;;;;;;;;;;7.50;99.90;;;;;;5047097;28;20556;-76
2021/11/21 00:30:04;;;;;;;;;;;7.50;99.90;;;;;;5046811;28;20391;-77
2021/11/21 00:32:30;;;;;;;;;;;7.50;99.90;;;;;;5049931;28;20464;-77
2021/11/21 00:34:58;;;;;;;;;;;7.50;99.90;;;;;;5048974;28;19925;-77
2021/11/21 00:37:26;;;;;;;;;;;7.50;99.90;;;;;;5045489;28;19947;-76
2021/11/21 00:39:53;;;;;;;;;;;7.50;99.90;;;;;;5052119;28;19982;-78
2021/11/21 00:42:19;;;;;;;;;;;7.50;99.90;;;;;;5042981;28;20019;-77
2021/11/21 00:44:46;;;;;;;;;;;7.50;99.90;;;;;;5045449;28;20396;-77
2021/11/21 00:47:13;;;;;;;;;;;7.50;99.90;;;;;;5047871;28;20387;-76
2021/11/21 00:49:40;;;;;;;;;;;7.50;99.90;;;;;;5050091;28;20678;-76
2021/11/21 00:52:09;;;;;;;;;;;7.50;99.90;;;;;;5048704;28;20019;-77
2021/11/21 00:54:46;;;;;;;;;;;7.50;99.90;;;;;;5046284;28;19931;-77
2021/11/21 00:57:12;;;;;;;;;;;7.50;99.90;;;;;;5046837;28;20028;-76
2021/11/21 00:59:39;;;;;;;;;;;7.60;99.90;;;;;;5051864;28;19931;-76
2021/11/21 01:02:09;;;;;;;;;;;7.60;99.90;;;;;;5048085;28;19925;-75
2021/11/21 01:04:36;;;;;;;;;;;7.60;99.90;;;;;;5050407;28;19986;-76
2021/11/21 01:07:03;;;;;;;;;;;7.50;99.90;;;;;;5048189;28;19932;-76
2021/11/21 01:09:31;;;;;;;;;;;7.60;99.90;;;;;;5047957;28;19925;-76
2021/11/21 01:11:58;;;;;;;;;;;7.50;99.90;;;;;;5047511;28;19935;-76
2021/11/21 01:14:24;;;;;;;;;;;7.60;99.90;;;;;;5046342;28;19971;-76
2021/11/21 01:16:51;;;;;;;;;;;7.60;99.90;;;;;;5050079;28;19935;-76
2021/11/21 01:19:18;;;;;;;;;;;7.50;99.90;;;;;;5049617;28;19932;-77
2021/11/21 01:21:44;;;;;;;;;;;7.60;99.90;;;;;;5046960;28;19939;-76
2021/11/21 01:24:11;;;;;;;;;;;7.50;99.90;;;;;;5050649;28;19925;-77
2021/11/21 01:26:39;;;;;;;;;;;7.50;99.90;;;;;;5049105;28;19935;-77
2021/11/21 01:29:06;;;;;;;;;;;7.50;99.90;;;;;;5052280;28;20288;-76
2021/11/21 01:31:33;;;;;;;;;;;7.60;99.90;;;;;;5051635;28;19925;-76
2021/11/21 01:33:59;;;;;;;;;;;7.50;99.90;;;;;;5042606;28;19925;-78
2021/11/21 01:36:26;;;;;;;;;;;7.60;99.90;;;;;;5051854;28;19931;-76
2021/11/21 01:38:53;;;;;;;;;;;7.50;99.90;;;;;;5052813;28;20023;-76
2021/11/21 01:41:20;;;;;;;;;;;7.60;99.90;;;;;;5052356;28;20379;-77
2021/11/21 01:43:48;;;;;;;;;;;7.50;99.90;;;;;;5040852;28;20292;-77
2021/11/21 01:46:15;;;;;;;;;;;7.60;99.90;;;;;;5055469;28;19960;-78
2021/11/21 01:48:41;;;;;;;;;;;7.60;99.90;;;;;;5051512;28;19924;-76
2021/11/21 01:51:09;;;;;;;;;;;7.50;99.90;;;;;;5054267;28;20455;-76
2021/11/21 01:53:36;;;;;;;;;;;7.60;99.90;;;;;;5053890;28;19956;-78
2021/11/21 01:56:03;;;;;;;;;;;7.60;99.90;;;;;;5056118;28;20027;-77
2021/11/21 01:58:30;;;;;;;;;;;7.60;99.90;;;;;;5051424;28;20435;-77
2021/11/21 02:00:58;;;;;;;;;;;7.60;99.90;;;;;;5052243;28;20023;-78
2021/11/21 02:03:25;;;;;;;;;;;7.60;99.90;;;;;;5051852;28;20007;-75
2021/11/21 02:05:51;;;;;;;;;;;7.60;99.90;;;;;;5051094;28;19925;-76
2021/11/21 02:08:18;;;;;;;;;;;7.60;99.90;;;;;;5047985;28;20019;-76
2021/11/21 02:10:45;;;;;;;;;;;7.60;99.90;;;;;;5051335;28;20397;-77
2021/11/21 02:13:11;;;;;;;;;;;7.60;99.90;;;;;;5049737;28;20302;-77
2021/11/21 02:15:39;;;;;;;;;;;7.60;99.90;;;;;;5044550;28;19929;-77
2021/11/21 02:18:07;;;;;;;;;;;7.60;99.90;;;;;;5044757;28;19947;-77
2021/11/21 02:20:45;;;;;;;;;;;7.50;99.90;;;;;;5051103;28;19929;-76
2021/11/21 02:23:12;;;;;;;;;;;7.60;99.90;;;;;;5050285;28;19925;-77
2021/11/21 02:25:39;;;;;;;;;;;7.60;99.90;;;;;;5046433;28;19925;-76
2021/11/21 02:28:06;;;;;;;;;;;7.60;99.90;;;;;;5045330;28;20031;-76
2021/11/21 02:30:33;;;;;;;;;;;7.60;99.90;;;;;;5043739;28;20011;-76
2021/11/21 02:32:59;;;;;;;;;;;7.60;99.90;;;;;;5050751;28;19932;-76
2021/11/21 02:35:26;;;;;;;;;;;7.60;99.90;;;;;;5055179;28;19931;-78
2021/11/21 02:37:54;;;;;;;;;;;7.60;99.90;;;;;;5052074;28;20025;-77
2021/11/21 02:40:21;;;;;;;;;;;7.60;99.90;;;;;;5053996;28;19924;-77
2021/11/21 02:42:48;;;;;;;;;;;7.60;99.90;;;;;;5049818;28;19931;-77
2021/11/21 02:45:15;;;;;;;;;;;7.60;99.90;;;;;;5044311;28;20435;-76
2021/11/21 02:47:43;;;;;;;;;;;7.60;99.90;;;;;;5045471;28;19925;-76
2021/11/21 02:50:11;;;;;;;;;;;7.60;99.90;;;;;;5052155;28;19932;-77
2021/11/21 02:52:38;;;;;;;;;;;7.60;99.90;;;;;;5047199;28;19925;-77
2021/11/21 02:55:07;;;;;;;;;;;7.60;99.90;;;;;;5049758;28;20016;-76
2021/11/21 02:57:34;;;;;;;;;;;7.60;99.90;;;;;;5046253;28;19979;-76
2021/11/21 03:00:01;;;;;;;;;;;7.60;99.90;;;;;;5043549;28;19924;-77
2021/11/21 03:02:28;;;;;;;;;;;7.60;99.90;;;;;;5042471;28;19925;-76
2021/11/21 03:04:56;;;;;;;;;;;7.60;99.90;;;;;;5048935;28;19925;-76
2021/11/21 03:07:23;;;;;;;;;;;7.60;99.90;;;;;;5046071;28;19932;-77
2021/11/21 03:09:50;;;;;;;;;;;7.60;99.90;;;;;;5043567;28;19924;-77
2021/11/21 03:12:25;;;;;;;;;;;7.60;99.90;;;;;;5043404;28;19931;-78
2021/11/21 03:14:52;;;;;;;;;;;7.60;99.90;;;;;;5047527;28;20368;-78
2021/11/21 03:17:20;;;;;;;;;;;7.70;99.90;;;;;;5044421;28;19956;-77
2021/11/21 03:19:47;;;;;;;;;;;7.60;99.90;;;;;;5047666;28;19936;-76
2021/11/21 03:22:14;;;;;;;;;;;7.70;99.90;;;;;;5049158;28;19929;-78
2021/11/21 03:24:40;;;;;;;;;;;7.60;99.90;;;;;;5047167;28;19932;-78
2021/11/21 03:27:07;;;;;;;;;;;7.60;99.90;;;;;;5050410;28;19928;-78
2021/11/21 03:29:36;;;;;;;;;;;7.60;99.90;;;;;;5048959;28;19945;-80
2021/11/21 03:32:02;;;;;;;;;;;7.60;99.90;;;;;;5052908;28;19933;-78
2021/11/21 03:34:36;;;;;;;;;;;7.60;99.90;;;;;;5051291;28;19924;-79
2021/11/21 03:37:03;;;;;;;;;;;7.60;99.90;;;;;;5049905;28;20050;-79
2021/11/21 03:39:30;;;;;;;;;;;7.60;99.90;;;;;;5049128;28;20295;-79
2021/11/21 03:41:56;;;;;;;;;;;7.60;99.90;;;;;;5048219;28;19925;-80
2021/11/21 03:44:23;;;;;;;;;;;7.60;99.90;;;;;;5056651;28;20016;-79
2021/11/21 03:46:51;;;;;;;;;;;7.60;99.90;;;;;;5053071;28;20011;-79
2021/11/21 03:49:18;;;;;;;;;;;7.60;99.90;;;;;;5055900;28;20470;-79
2021/11/21 03:51:44;;;;;;;;;;;7.60;99.90;;;;;;5048170;28;20382;-81
2021/11/21 03:54:11;;;;;;;;;;;7.60;99.90;;;;;;5052708;28;20368;-79
2021/11/21 03:56:38;;;;;;;;;;;7.60;99.90;;;;;;5050384;28;19929;-79
2021/11/21 03:59:04;;;;;;;;;;;7.60;99.90;;;;;;5054004;28;19925;-79
2021/11/21 04:01:32;;;;;;;;;;;7.60;99.90;;;;;;5049608;28;19996;-79
2021/11/21 04:04:00;;;;;;;;;;;7.60;99.90;;;;;;5048814;28;19925;-80
2021/11/21 04:06:27;;;;;;;;;;;7.60;99.90;;;;;;5049031;28;19940;-79
2021/11/21 04:08:54;;;;;;;;;;;7.60;99.90;;;;;;5049956;28;20020;-79
2021/11/21 04:11:20;;;;;;;;;;;7.60;99.90;;;;;;5053368;28;20365;-79
2021/11/21 04:13:47;;;;;;;;;;;7.60;99.90;;;;;;5057479;28;20363;-79
2021/11/21 04:16:13;;;;;;;;;;;7.60;99.90;;;;;;5065208;28;20403;-80
2021/11/21 04:18:43;;;;;;;;;;;7.60;99.90;;;;;;5057247;28;19963;-80
2021/11/21 04:21:11;;;;;;;;;;;7.60;99.90;;;;;;5053133;28;19928;-79
2021/11/21 04:23:37;;;;;;;;;;;7.60;99.90;;;;;;5051259;28;20391;-79
2021/11/21 04:26:04;;;;;;;;;;;7.60;99.90;;;;;;5060700;28;20358;-80
2021/11/21 04:28:30;;;;;;;;;;;7.60;99.90;;;;;;5054054;28;20567;-79
2021/11/21 04:30:57;;;;;;;;;;;7.60;99.90;;;;;;5055203;28;19924;-80
2021/11/21 04:33:24;;;;;;;;;;;7.60;99.90;;;;;;5052188;28;20387;-80
2021/11/21 04:35:51;;;;;;;;;;;7.70;99.90;;;;;;5057420;28;20035;-80
2021/11/21 04:38:21;;;;;;;;;;;7.60;99.90;;;;;;5048096;28;19932;-79
2021/11/21 04:40:50;;;;;;;;;;;7.60;99.90;;;;;;5053239;28;20023;-78
2021/11/21 04:43:17;;;;;;;;;;;7.70;99.90;;;;;;5049536;28;19947;-80
2021/11/21 04:45:44;;;;;;;;;;;7.70;99.90;;;;;;5050464;28;20264;-78
2021/11/21 04:48:11;;;;;;;;;;;7.70;99.90;;;;;;5042166;28;20382;-79
2021/11/21 04:50:37;;;;;;;;;;;7.70;99.90;;;;;;5054375;28;19947;-79
2021/11/21 04:53:04;;;;;;;;;;;7.70;99.90;;;;;;5052040;28;19924;-79
2021/11/21 04:55:32;;;;;;;;;;;7.70;99.90;;;;;;5049663;28;20402;-79
2021/11/21 04:57:59;;;;;;;;;;;7.70;99.90;;;;;;5046018;28;19931;-79
2021/11/21 05:00:26;;;;;;;;;;;7.70;99.90;;;;;;5049002;28;19939;-78
2021/11/21 05:02:53;;;;;;;;;;;7.70;99.90;;;;;;5050767;28;20012;-78
2021/11/21 05:05:20;;;;;;;;;;;7.70;99.90;;;;;;5043617;28;19931;-78
2021/11/21 05:07:47;;;;;;;;;;;7.70;99.90;;;;;;5049282;28;20226;-78
2021/11/21 05:10:14;;;;;;;;;;;7.70;99.90;;;;;;5050081;28;20394;-78
2021/11/21 05:12:42;;;;;;;;;;;7.80;99.90;;;;;;5046936;28;19948;-78
2021/11/21 05:15:11;;;;;;;;;;;7.70;99.90;;;;;;5049854;28;19925;-78
2021/11/21 05:17:38;;;;;;;;;;;7.70;99.90;;;;;;5046594;28;20362;-78
2021/11/21 05:20:05;;;;;;;;;;;7.70;99.90;;;;;;5048456;28;19925;-79
2021/11/21 05:22:32;;;;;;;;;;;7.70;99.90;;;;;;5049210;28;20418;-78
2021/11/21 05:24:58;;;;;;;;;;;7.70;99.90;;;;;;5054020;28;20018;-78
2021/11/21 05:27:25;;;;;;;;;;;7.80;99.90;;;;;;5050108;28;19939;-78
2021/11/21 05:29:53;;;;;;;;;;;7.80;99.90;;;;;;5046985;28;19925;-78
2021/11/21 05:32:21;;;;;;;;;;;7.80;99.90;;;;;;5046873;28;19924;-78
2021/11/21 05:34:47;;;;;;;;;;;7.70;99.90;;;;;;5051856;28;20470;-78
2021/11/21 05:37:14;;;;;;;;;;;7.70;99.90;;;;;;5048933;28;20394;-78
2021/11/21 05:39:41;;;;;;;;;;;7.70;99.90;;;;;;5051295;28;20008;-79
2021/11/21 05:42:07;;;;;;;;;;;7.70;99.90;;;;;;5048409;28;20290;-78
2021/11/21 05:44:34;;;;;;;;;;;7.70;99.90;;;;;;5054098;28;19931;-78
2021/11/21 05:47:03;;;;;;;;;;;7.70;99.90;;;;;;5049989;28;19943;-79
2021/11/21 05:49:29;;;;;;;;;;;7.70;99.90;;;;;;5051662;28;20307;-79
2021/11/21 05:51:56;;;;;;;;;;;7.80;99.90;;;;;;5048854;28;20050;-79
2021/11/21 05:54:23;;;;;;;;;;;7.70;99.90;;;;;;5052287;28;19933;-79
2021/11/21 05:56:49;;;;;;;;;;;7.80;99.90;;;;;;5049822;28;20310;-79
2021/11/21 05:59:16;;;;;;;;;;;7.80;99.90;;;;;;5051794;28;19925;-79
2021/11/21 06:01:43;;;;;;;;;;;7.80;99.90;;;;;;5048259;28;19925;-77
2021/11/21 06:04:11;;;;;;;;;;;7.80;99.90;;;;;;5049366;28;19931;-79
2021/11/21 06:06:37;;;;;;;;;;;7.80;99.90;;;;;;5047175;28;20467;-77
2021/11/21 06:09:04;;;;;;;;;;;7.80;99.90;;;;;;5047088;28;19933;-77
2021/11/21 06:11:31;;;;;;;;;;;7.80;99.90;;;;;;5062419;28;19939;-79
2021/11/21 06:13:57;;;;;;;;;;;7.80;99.90;;;;;;5050220;28;19925;-78
2021/11/21 06:16:24;;;;;;;;;;;7.80;99.90;;;;;;5050000;28;20027;-78
2021/11/21 06:18:50;;;;;;;;;;;7.80;99.90;;;;;;5044173;28;20015;-79
2021/11/21 06:21:18;;;;;;;;;;;7.80;99.90;;;;;;5051055;28;20292;-78
2021/11/21 06:23:45;;;;;;;;;;;7.90;99.90;;;;;;5045819;28;20027;-79
2021/11/21 06:26:13;;;;;;;;;;;7.90;99.90;;;;;;5049110;28;19931;-79
2021/11/21 06:28:40;;;;;;;;;;;7.90;99.90;;;;;;5049437;28;19925;-78
2021/11/21 06:31:07;;;;;;;;;;;7.90;99.90;;;;;;5051908;28;19935;-78
2021/11/21 06:33:33;;;;;;;;;;;7.90;99.90;;;;;;5049310;28;19928;-80
2021/11/21 06:36:02;;;;;;;;;;;7.90;99.90;;;;;;5051737;28;20034;-78
2021/11/21 06:38:30;;;;;;;;;;;7.90;99.90;;;;;;5053129;28;19964;-78
2021/11/21 06:40:57;;;;;;;;;;;7.90;99.90;;;;;;5045816;28;19928;-77
2021/11/21 06:43:24;;;;;;;;;;;7.90;99.90;;;;;;5050095;28;19925;-80
2021/11/21 06:45:50;;;;;;;;;;;7.90;99.90;;;;;;5051937;28;19952;-78
2021/11/21 06:48:20;;;;;;;;;;;7.90;99.90;;;;;;5054558;28;20084;-78
2021/11/21 06:50:48;;;;;;;;;;;8.00;99.90;;;;;;5053770;28;19937;-78
2021/11/21 06:53:15;;;;;;;;;;;8.00;99.90;;;;;;5042442;28;19932;-78
2021/11/21 06:55:43;;;;;;;;;;;7.90;99.90;;;;;;5046117;28;19960;-77
2021/11/21 06:58:10;;;;;;;;;;;7.90;99.90;;;;;;5042475;28;19964;-78
2021/11/21 07:00:37;;;;;;;;;;;8.00;99.90;;;;;;5051653;28;19948;-78
2021/11/21 07:03:03;;;;;;;;;;;8.00;99.90;;;;;;5050681;28;19928;-77
2021/11/21 07:05:30;;;;;;;;;;;8.00;99.90;;;;;;5052964;28;20282;-78
2021/11/21 07:07:57;;;;;;;;;;;8.00;99.90;;;;;;5051055;28;19975;-78
2021/11/21 07:10:24;;;;;;;;;;;8.00;99.90;;;;;;5052607;28;19960;-78
2021/11/21 07:12:52;;;;;;;;;;;8.00;99.90;;;;;;5048949;28;20016;-79
2021/11/21 07:15:19;;;;;;;;;;;8.00;99.90;;;;;;5058226;28;20008;-81
2021/11/21 07:17:47;;;;;;;;;;;8.10;99.90;;;;;;5054507;28;19925;-82
2021/11/21 07:20:16;;;;;;;;;;;8.10;99.90;;;;;;5059398;28;19944;-80
2021/11/21 07:22:43;;;;;;;;;;;8.10;99.90;;;;;;5051664;28;20320;-80
2021/11/21 07:25:10;;;;;;;;;;;8.10;99.90;;;;;;5055388;28;19925;-83
2021/11/21 07:27:37;;;;;;;;;;;8.10;99.90;;;;;;5052431;28;20024;-82
2021/11/21 07:30:05;;;;;;;;;;;8.10;99.90;;;;;;5053114;28;19929;-82
2021/11/21 07:32:32;;;;;;;;;;;8.10;99.90;;;;;;5051575;28;19931;-79
2021/11/21 07:34:59;;;;;;;;;;;8.10;99.90;;;;;;5050125;28;19925;-79
2021/11/21 07:37:25;;;;;;;;;;;8.10;99.90;;;;;;5050618;28;19929;-78
2021/11/21 07:39:52;;;;;;;;;;;8.10;99.90;;;;;;5052048;28;19968;-77
2021/11/21 07:42:19;;;;;;;;;;;8.20;99.90;;;;;;5051618;28;19928;-78
2021/11/21 07:44:46;;;;;;;;;;;8.20;99.90;;;;;;5051335;28;19925;-82
2021/11/21 07:47:14;;;;;;;;;;;8.20;99.90;;;;;;5049724;28;19932;-81
2021/11/21 07:49:41;;;;;;;;;;;8.30;99.90;;;;;;5050323;28;19925;-81
2021/11/21 07:52:08;;;;;;;;;;;8.40;99.90;;;;;;5050315;28;20352;-81
2021/11/21 07:54:37;;;;;;;;;;;8.40;99.90;;;;;;5042464;28;19933;-83
2021/11/21 07:57:03;;;;;;;;;;;8.40;99.90;;;;;;5043392;28;19951;-82
2021/11/21 07:59:30;;;;;;;;;;;8.50;99.90;;;;;;5048449;28;20011;-82
2021/11/21 08:01:57;;;;;;;;;;;8.50;99.90;;;;;;5047017;28;19925;-80
2021/11/21 08:04:25;;;;;;;;;;;8.50;99.90;;;;;;5041612;28;19937;-81
2021/11/21 08:06:53;;;;;;;;;;;8.60;99.90;;;;;;5045556;28;19925;-79
2021/11/21 08:09:19;;;;;;;;;;;8.60;99.90;;;;;;5049384;28;19925;-80
2021/11/21 08:11:46;;;;;;;;;;;8.60;99.90;;;;;;5048201;28;19925;-81
2021/11/21 08:14:13;;;;;;;;;;;8.60;99.90;;;;;;5046640;28;20383;-81
2021/11/21 08:16:41;;;;;;;;;;;8.50;99.90;;;;;;5049525;28;20442;-80
2021/11/21 08:19:10;;;;;;;;;;;8.60;99.90;;;;;;5044400;28;19924;-79
2021/11/21 08:21:38;;;;;;;;;;;8.60;99.90;;;;;;5050907;28;20307;-81
2021/11/21 08:24:07;;;;;;;;;;;8.60;99.90;;;;;;5051384;28;19925;-82
2021/11/21 08:26:33;;;;;;;;;;;8.60;99.90;;;;;;5044639;28;20441;-81
2021/11/21 08:29:00;;;;;;;;;;;8.60;99.90;;;;;;5047200;28;20436;-80
2021/11/21 08:31:27;;;;;;;;;;;8.60;99.90;;;;;;5046245;28;19924;-81
2021/11/21 08:33:53;;;;;;;;;;;8.60;99.90;;;;;;5045938;28;19987;-83
2021/11/21 08:36:20;;;;;;;;;;;8.60;99.90;;;;;;5045248;28;20004;-80
2021/11/21 08:38:48;;;;;;;;;;;8.60;99.90;;;;;;5046358;28;19932;-80
2021/11/21 08:41:15;;;;;;;;;;;8.60;99.90;;;;;;5045983;28;19928;-78
2021/11/21 08:43:42;;;;;;;;;;;8.60;99.90;;;;;;5048142;28;19931;-79
2021/11/21 08:46:09;;;;;;;;;;;8.60;99.90;;;;;;5046595;28;19935;-77
2021/11/21 08:48:35;;;;;;;;;;;8.60;99.90;;;;;;5045766;28;20291;-78
2021/11/21 08:51:03;;;;;;;;;;;8.50;99.90;;;;;;5046515;28;20267;-78
2021/11/21 08:53:30;;;;;;;;;;;8.50;99.90;;;;;;5047756;28;19931;-79
2021/11/21 08:55:58;;;;;;;;;;;8.40;99.90;;;;;;5046444;28;19933;-79
2021/11/21 09:01:09;;;;;;;;;;;8.40;99.90;;;;;;5059467;22;19932;-78
2021/11/21 09:03:36;;;;;;;;;;;8.40;99.90;;;;;;5114205;22;19935;-79
2021/11/21 09:06:03;;;;;;;;;;;8.50;99.90;;;;;;5018623;28;20008;-81
2021/11/21 09:08:30;;;;;;;;;;;8.40;99.90;;;;;;5016590;28;19975;-80
2021/11/21 09:10:58;;;;;;;;;;;8.40;99.90;;;;;;5017557;28;20371;-80
2021/11/21 09:13:27;;;;;;;;;;;8.20;99.90;;;;;;5027155;28;19925;-80
2021/11/21 09:15:54;;;;;;;;;;;8.10;99.90;;;;;;5027904;28;19932;-79
2021/11/21 09:18:24;;;;;;;;;;;8.00;99.90;;;;;;5024532;28;20007;-79
2021/11/21 09:20:52;;;;;;;;;;;7.80;99.90;;;;;;5017154;28;19933;-77
2021/11/21 09:23:19;;;;;;;;;;;7.90;99.90;;;;;;5028815;28;19960;-79
2021/11/21 09:25:46;;;;;;;;;;;8.00;99.90;;;;;;5018282;28;19930;-80
2021/11/21 09:28:14;;;;;;;;;;;8.00;99.90;;;;;;5025639;28;19932;-77
2021/11/21 09:30:41;;;;;;;;;;;8.00;99.90;;;;;;5022117;28;19925;-78
2021/11/21 09:33:08;;;;;;;;;;;8.00;99.90;;;;;;5021147;28;20438;-78
2021/11/21 09:35:34;;;;;;;;;;;8.10;99.90;;;;;;5021226;28;19971;-79
2021/11/21 09:38:01;;;;;;;;;;;8.10;99.90;;;;;;5019214;28;20003;-79
2021/11/21 09:40:28;;;;;;;;;;;8.10;99.90;;;;;;5032825;28;19933;-79
2021/11/21 09:42:55;;;;;;;;;;;8.10;99.90;;;;;;5020149;28;19932;-79
2021/11/21 09:45:23;;;;;;;;;;;8.20;99.90;;;;;;5020030;28;20008;-79
2021/11/21 09:47:50;;;;;;;;;;;8.20;99.90;;;;;;5015180;28;19932;-79
2021/11/21 09:50:17;;;;;;;;;;;8.30;99.90;;;;;;5020164;28;19969;-80
2021/11/21 09:52:43;;;;;;;;;;;8.20;99.90;;;;;;5012386;28;19929;-84
2021/11/21 09:55:10;;;;;;;;;;;8.20;99.90;;;;;;5017406;28;19929;-81
2021/11/21 09:57:37;;;;;;;;;;;8.10;99.90;;;;;;5011237;28;19925;-84
2021/11/21 10:00:07;;;;;;;;;;;8.20;99.90;;;;;;5015861;28;19983;-80
2021/11/21 10:02:36;;;;;;;;;;;8.20;99.90;;;;;;5013229;28;19925;-79
2021/11/21 10:05:04;;;;;;;;;;;8.20;99.90;;;;;;5013247;28;19926;-80
2021/11/21 10:07:32;;;;;;;;;;;8.20;99.90;;;;;;5012972;28;19926;-81
2021/11/21 10:10:00;;;;;;;;;;;8.30;99.90;;;;;;5015005;28;20025;-79
2021/11/21 10:12:33;;;;;;;;;;;8.30;99.90;;;;;;5022755;28;19940;-81
2021/11/21 10:15:02;;;;;;;;;;;8.40;99.90;;;;;;5014754;28;19925;-80
2021/11/21 10:17:30;;;;;;;;;;;8.50;99.90;;;;;;5015902;28;19987;-82
2021/11/21 10:20:19;;;;;;;;;;;8.60;99.90;;;;;;5016224;28;19929;-79
2021/11/21 10:22:49;;;;;;;;;;;8.60;99.90;;;;;;5014356;28;19925;-82
2021/11/21 10:25:37;;;;;;;;;;;8.70;99.90;;;;;;5022855;28;19925;-84
2021/11/21 10:28:04;;;;;;;;;;;8.70;99.90;;;;;;5024440;28;19929;-81
2021/11/21 10:30:31;;;;;;;;;;;8.80;99.90;;;;;;5026272;28;19931;-81
2021/11/21 10:33:02;;;;;;;;;;;8.80;99.90;;;;;;5023480;28;19929;-80
2021/11/21 10:35:28;;;;;;;;;;;8.80;99.90;;;;;;5025633;28;19971;-81
2021/11/21 10:37:59;;;;;;;;;;;8.80;99.90;;;;;;5022625;28;19925;-84
2021/11/21 10:40:25;;;;;;;;;;;8.80;99.90;;;;;;5021448;28;20004;-81
2021/11/21 10:42:53;;;;;;;;;;;8.90;99.90;;;;;;5026888;28;19961;-81
2021/11/21 10:45:21;;;;;;;;;;;8.90;99.90;;;;;;5022497;28;20004;-83
2021/11/21 10:47:48;;;;;;;;;;;8.90;99.90;;;;;;5022293;28;19925;-81
2021/11/21 10:50:26;;;;;;;;;;;8.90;99.90;;;;;;5017814;28;19932;-81
2021/11/21 10:52:53;;;;;;;;;;;8.90;99.90;;;;;;5013486;28;19925;-81
2021/11/21 10:55:21;;;;;;;;;;;8.80;99.90;;;;;;5027973;28;20011;-80
2021/11/21 10:57:48;;;;;;;;;;;8.80;99.90;;;;;;5017821;28;20371;-81
2021/11/21 11:00:16;;;;;;;;;;;8.80;99.90;;;;;;5016098;28;19975;-81
2021/11/21 11:02:43;;;;;;;;;;;8.80;99.90;;;;;;5018652;28;19929;-81
2021/11/21 11:05:11;;;;;;;;;;;8.90;99.90;;;;;;5018210;28;19987;-83
2021/11/21 11:07:40;;;;;;;;;;;8.80;99.90;;;;;;5016659;28;19925;-82
2021/11/21 11:10:09;;;;;;;;;;;8.80;99.90;;;;;;5019601;28;19932;-80
2021/11/21 11:12:38;;;;;;;;;;;8.80;99.90;;;;;;5011324;28;19929;-79
2021/11/21 11:15:05;;;;;;;;;;;8.80;99.90;;;;;;5012764;28;20059;-80
2021/11/21 11:17:32;;;;;;;;;;;8.80;99.90;;;;;;5010939;28;19933;-80
2021/11/21 11:19:59;;;;;;;;;;;8.80;99.90;;;;;;5013076;28;20401;-81
2021/11/21 11:22:27;;;;;;;;;;;8.90;99.90;;;;;;5021294;28;20016;-85
2021/11/21 11:24:55;;;;;;;;;;;8.90;99.90;;;;;;5013000;28;19929;-81
2021/11/21 11:27:26;;;;;;;;;;;8.90;99.90;;;;;;5013969;28;20016;-80
2021/11/21 11:29:54;;;;;;;;;;;8.90;99.90;;;;;;5025969;28;19925;-83
2021/11/21 11:32:31;;;;;;;;;;;8.90;99.90;;;;;;5016955;28;20348;-82
2021/11/21 11:34:58;;;;;;;;;;;9.00;99.90;;;;;;5011260;28;19926;-80
2021/11/21 11:37:42;;;;;;;;;;;9.10;99.90;;;;;;5018190;28;20277;-81
2021/11/21 11:40:23;;;;;;;;;;;9.20;99.90;;;;;;5016379;28;20308;-80
2021/11/21 11:42:50;;;;;;;;;;;9.30;99.90;;;;;;5002762;28;19980;-80
2021/11/21 11:45:18;;;;;;;;;;;9.40;99.90;;;;;;5021136;28;19997;-84
2021/11/21 11:47:45;;;;;;;;;;;9.30;99.90;;;;;;5031523;28;19993;-85
2021/11/21 11:50:38;;;;;;;;;;;9.30;99.90;;;;;;5022561;28;21065;-81
2021/11/21 11:53:08;;;;;;;;;;;9.30;99.90;;;;;;5018906;28;19932;-79
2021/11/21 11:55:34;;;;;;;;;;;9.40;99.90;;;;;;5018750;28;20312;-80
2021/11/21 11:58:01;;;;;;;;;;;9.40;99.90;;;;;;5025463;28;19925;-80
2021/11/21 12:00:33;;;;;;;;;;;9.50;99.90;;;;;;5019193;28;20299;-82
2021/11/21 12:03:00;;;;;;;;;;;9.50;99.90;;;;;;5021880;28;19926;-83
2021/11/21 12:05:31;;;;;;;;;;;9.60;99.90;;;;;;5020339;28;20388;-81
2021/11/21 12:08:19;;;;;;;;;;;9.60;99.90;;;;;;5020547;28;20292;-80
2021/11/21 12:10:50;;;;;;;;;;;9.60;99.90;;;;;;5012485;28;20024;-81
2021/11/21 12:13:26;;;;;;;;;;;9.60;99.90;;;;;;5014321;28;20016;-79
2021/11/21 12:15:56;;;;;;;;;;;9.50;99.90;;;;;;5021730;28;19929;-80
2021/11/21 12:18:23;;;;;;;;;;;9.50;99.90;;;;;;5020361;28;19925;-78
2021/11/21 12:20:52;;;;;;;;;;;9.50;99.90;;;;;;5020241;28;19925;-78
2021/11/21 12:23:36;;;;;;;;;;;9.60;99.90;;;;;;5023911;28;19968;-80
2021/11/21 12:26:22;;;;;;;;;;;9.60;99.90;;;;;;5013134;28;20343;-79
2021/11/21 12:28:59;;;;;;;;;;;9.80;99.90;;;;;;5020254;28;19968;-80
2021/11/21 12:31:31;;;;;;;;;;;9.80;99.90;;;;;;5032865;28;19925;-75
2021/11/21 12:34:12;;;;;;;;;;;9.80;99.90;;;;;;5023014;28;19975;-77
2021/11/21 12:36:54;;;;;;;;;;;9.80;99.90;;;;;;5029290;28;20017;-76
2021/11/21 12:39:31;;;;;;;;;;;9.80;99.90;;;;;;4984579;28;19931;-76
2021/11/21 12:42:01;;;;;;;;;;;9.70;99.90;;;;;;5034601;28;19925;-78
2021/11/21 12:44:27;;;;;;;;;;;9.70;99.90;;;;;;5040558;28;19983;-77
2021/11/21 12:46:59;;;;;;;;;;;9.80;99.90;;;;;;5035159;28;19965;-81
2021/11/21 12:49:26;;;;;;;;;;;9.80;99.90;;;;;;5034257;28;20019;-80
2021/11/21 12:52:01;;;;;;;;;;;9.80;99.90;;;;;;5025285;28;19932;-80
2021/11/21 12:54:28;;;;;;;;;;;9.70;99.90;;;;;;5034440;28;20399;-80
2021/11/21 12:56:55;;;;;;;;;;;9.70;99.90;;;;;;5032127;28;20534;-79
2021/11/21 12:59:21;;;;;;;;;;;9.70;99.90;;;;;;5033794;28;20024;-78
2021/11/21 13:01:48;;;;;;;;;;;9.70;99.90;;;;;;5027095;28;19933;-81
2021/11/21 13:04:16;;;;;;;;;;;9.70;99.90;;;;;;5027191;28;19933;-79
2021/11/21 13:06:42;;;;;;;;;;;9.80;99.90;;;;;;5018998;28;19929;-79
2021/11/21 13:09:09;;;;;;;;;;;9.70;99.90;;;;;;5028677;28;20283;-79
2021/11/21 13:11:36;;;;;;;;;;;9.80;99.90;;;;;;5014606;28;19932;-78
2021/11/21 13:14:03;;;;;;;;;;;9.70;99.90;;;;;;5017011;28;19979;-78
2021/11/21 13:16:33;;;;;;;;;;;9.70;99.90;;;;;;5021695;28;19925;-79
2021/11/21 13:19:04;;;;;;;;;;;9.70;99.90;;;;;;5017423;28;19929;-78
2021/11/21 13:21:33;;;;;;;;;;;9.80;99.90;;;;;;5019303;28;19933;-79
2021/11/21 13:24:01;;;;;;;;;;;9.80;99.90;;;;;;5013516;28;19933;-79
2021/11/21 13:26:28;;;;;;;;;;;9.80;99.90;;;;;;5011395;28;19925;-79
2021/11/21 13:28:56;;;;;;;;;;;9.70;99.90;;;;;;5014369;28;19930;-78
2021/11/21 13:31:24;;;;;;;;;;;9.70;99.90;;;;;;5018255;28;19956;-79
2021/11/21 13:33:56;;;;;;;;;;;9.70;99.90;;;;;;5013517;28;19969;-79
2021/11/21 13:36:26;;;;;;;;;;;9.80;99.90;;;;;;5014197;28;19933;-79
2021/11/21 13:38:59;;;;;;;;;;;9.70;99.90;;;;;;5019895;28;19925;-79
2021/11/21 13:41:26;;;;;;;;;;;9.70;99.90;;;;;;5012020;28;20395;-79
2021/11/21 13:43:53;;;;;;;;;;;9.70;99.90;;;;;;5017516;28;19925;-76
2021/11/21 13:46:30;;;;;;;;;;;9.60;99.90;;;;;;5017849;28;19926;-77
2021/11/21 13:48:58;;;;;;;;;;;9.60;99.90;;;;;;5014492;28;20388;-79
2021/11/21 13:51:27;;;;;;;;;;;9.60;99.90;;;;;;5016655;28;20401;-79
2021/11/21 13:53:56;;;;;;;;;;;9.60;99.90;;;;;;5017912;28;19926;-77
2021/11/21 13:56:23;;;;;;;;;;;9.60;99.90;;;;;;5017715;28;19925;-79
2021/11/21 13:58:51;;;;;;;;;;;9.70;99.90;;;;;;5019107;28;19929;-79
2021/11/21 14:01:19;;;;;;;;;;;9.80;99.90;;;;;;5017577;28;20375;-78
2021/11/21 14:03:46;;;;;;;;;;;9.90;99.90;;;;;;5023629;28;19925;-79
2021/11/21 14:06:15;;;;;;;;;;;10.00;99.90;;;;;;5031741;28;20047;-78
2021/11/21 14:08:42;;;;;;;;;;;10.00;99.90;;;;;;5028851;28;19932;-77
2021/11/21 14:11:11;;;;;;;;;;;10.00;99.90;;;;;;5013818;28;19980;-78
2021/11/21 14:13:40;;;;;;;;;;;9.90;99.90;;;;;;5013221;28;19937;-79
2021/11/21 14:16:07;;;;;;;;;;;9.90;99.90;;;;;;5011569;28;19926;-82
2021/11/21 14:18:39;;;;;;;;;;;9.80;99.90;;;;;;5013969;28;19929;-78
2021/11/21 14:21:06;;;;;;;;;;;9.80;99.90;;;;;;5016137;28;20037;-79
2021/11/21 14:23:33;;;;;;;;;;;9.70;99.90;;;;;;5021019;28;19925;-78
2021/11/21 14:26:01;;;;;;;;;;;9.70;99.90;;;;;;5030795;28;19932;-80
2021/11/21 14:28:30;;;;;;;;;;;9.70;99.90;;;;;;5021274;28;20020;-79
2021/11/21 14:30:58;;;;;;;;;;;9.70;99.90;;;;;;5025650;28;19925;-79
2021/11/21 14:33:25;;;;;;;;;;;9.50;99.90;;;;;;5023967;28;19950;-78
2021/11/21 14:35:53;;;;;;;;;;;9.50;99.90;;;;;;5031497;28;19998;-77
2021/11/21 14:38:20;;;;;;;;;;;9.60;99.90;;;;;;5028835;28;20012;-77